Time;durP1;ratioP1;P1;durP2;ratioP2;P2;SDS_P1;SDS_P2;PMS_P1;PMS_P2;Temp;Humidity;BMP_temperature;BMP_pressure;BME280_temperature;BME280_humidity;BME280_pressure;Samples;Min_cycle;Max_cycle;Signal;HPM_P1;HPM_P2
2021/03/10 04:05:17;;;;;;;9.08;5.47;;;;;;;-8.61;100.00;101131.14;1746249;78;21575;-60
2021/03/10 04:07:54;;;;;;;9.80;5.92;;;;;;;-8.26;100.00;101131.86;1775746;79;21137;-59
2021/03/10 04:10:28;;;;;;;12.28;7.12;;;;;;;-7.84;100.00;101137.45;1774249;79;22203;-59
2021/03/10 04:12:57;;;;;;;13.05;6.53;;;;;;;-7.30;100.00;101136.28;1774254;79;21135;-60
2021/03/10 04:15:28;;;;;;;12.45;5.62;;;;;;;-6.69;100.00;101136.39;1784898;78;20904;-59
2021/03/10 04:17:56;;;;;;;12.15;6.75;;;;;;;-6.04;100.00;101140.05;1774673;79;21125;-58
2021/03/10 04:20:23;;;;;;;14.83;6.87;;;;;;;-5.41;100.00;101144.03;1795941;77;21569;-59
2021/03/10 04:22:51;;;;;;;10.53;6.53;;;;;;;-4.79;100.00;101144.51;1818963;77;22399;-58
2021/03/10 04:25:19;;;;;;;13.95;6.12;;;;;;;-4.11;100.00;101146.30;1795425;77;21148;-58
2021/03/10 04:27:47;;;;;;;10.38;5.67;;;;;;;-3.40;100.00;101143.94;1813307;77;20915;-59
2021/03/10 04:30:17;;;;;;;11.43;6.17;;;;;;;-2.81;100.00;101138.95;1860186;75;20916;-63
2021/03/10 04:32:45;;;;;;;12.85;6.60;;;;;;;-2.33;100.00;101140.41;1859218;75;21496;-60
2021/03/10 04:35:14;;;;;;;10.23;5.92;;;;;;;-1.94;100.00;101142.62;1866278;75;21427;-59
2021/03/10 04:37:42;;;;;;;10.32;5.75;;;;;;;-1.57;100.00;101144.50;1870509;75;21563;-58
2021/03/10 04:40:11;;;;;;;11.60;6.53;;;;;;;-1.07;100.00;101147.27;1868195;75;20867;-59
2021/03/10 04:42:41;;;;;;;11.15;6.47;;;;;;;-0.54;100.00;101139.53;1860678;75;20910;-59
2021/03/10 04:45:12;;;;;;;9.20;5.87;;;;;;;0.03;100.00;101142.09;1859960;75;21157;-58
2021/03/10 04:47:41;;;;;;;10.50;6.47;;;;;;;0.41;100.00;101132.03;1871019;75;21181;-60
2021/03/10 04:50:10;;;;;;;10.38;5.72;;;;;;;0.71;89.43;101135.69;1866516;75;21504;-59
2021/03/10 04:52:38;;;;;;;8.53;5.42;;;;;;;0.89;81.12;101131.13;1865323;75;21592;-59
2021/03/10 04:55:08;;;;;;;11.60;6.75;;;;;;;1.08;79.63;101135.08;1872650;75;21176;-59
2021/03/10 04:57:37;;;;;;;10.80;6.17;;;;;;;1.43;75.80;101132.73;1873695;75;21017;-60
2021/03/10 05:00:10;;;;;;;9.63;5.90;;;;;;;1.62;73.65;101134.43;1856956;75;21259;-58
2021/03/10 05:02:38;;;;;;;10.72;6.55;;;;;;;1.51;67.58;101133.51;1858843;76;20965;-64
2021/03/10 05:05:09;;;;;;;10.53;5.92;;;;;;;1.02;66.23;101142.70;1861522;75;21671;-58
2021/03/10 05:07:37;;;;;;;10.28;6.22;;;;;;;0.45;68.35;101147.59;1865062;75;21151;-58
2021/03/10 05:10:09;;;;;;;11.30;5.85;;;;;;;0.02;71.58;101157.11;1872079;75;21136;-58
2021/03/10 05:12:37;;;;;;;11.25;6.10;;;;;;;-0.31;74.13;101163.79;1801443;79;21158;-64
2021/03/10 05:15:06;;;;;;;9.95;6.42;;;;;;;-0.67;76.78;101165.50;1799948;77;20994;-57
2021/03/10 05:17:34;;;;;;;12.18;5.70;;;;;;;-0.95;80.26;101168.78;1800243;78;21161;-58
2021/03/10 05:20:05;;;;;;;9.70;6.30;;;;;;;-1.11;81.54;101173.94;1794380;78;21132;-58
2021/03/10 05:22:33;;;;;;;9.55;5.92;;;;;;;-1.33;83.70;101172.55;1796688;78;21232;-59
2021/03/10 05:25:02;;;;;;;8.90;5.83;;;;;;;-1.54;86.41;101179.67;1793093;78;21207;-57
2021/03/10 05:27:31;;;;;;;10.05;5.90;;;;;;;-1.68;89.08;101176.20;1810899;77;21097;-59
2021/03/10 05:30:00;;;;;;;10.30;5.62;;;;;;;-1.81;91.79;101183.25;1775532;80;21105;-57
2021/03/10 05:32:28;;;;;;;10.68;6.17;;;;;;;-1.91;93.58;101185.91;1820232;78;21489;-58
2021/03/10 05:34:57;;;;;;;10.18;5.70;;;;;;;-1.93;98.71;101183.89;1796091;79;21107;-58
2021/03/10 05:37:25;;;;;;;11.78;5.78;;;;;;;-1.87;99.47;101196.33;1790397;79;22357;-59
2021/03/10 05:39:53;;;;;;;10.20;5.87;;;;;;;-1.81;100.00;101197.77;1792681;79;21168;-61
2021/03/10 05:42:20;;;;;;;11.45;5.67;;;;;;;-1.70;100.00;101204.41;1860645;76;21035;-59
2021/03/10 05:44:51;;;;;;;10.58;6.37;;;;;;;-1.60;100.00;101210.67;1876362;75;21458;-63
2021/03/10 05:47:20;;;;;;;9.25;5.75;;;;;;;-1.58;100.00;101207.59;1854785;75;21073;-60
2021/03/10 05:49:49;;;;;;;10.23;5.53;;;;;;;-1.53;100.00;101209.89;1863330;76;21195;-60
2021/03/10 05:52:21;;;;;;;12.25;7.17;;;;;;;-1.44;100.00;101209.85;1861934;75;21080;-58
2021/03/10 05:54:51;;;;;;;10.23;6.12;;;;;;;-1.39;100.00;101219.40;1809967;76;21245;-60
2021/03/10 05:57:18;;;;;;;10.53;5.62;;;;;;;-1.31;100.00;101224.47;1865353;75;20912;-58
2021/03/10 05:59:46;;;;;;;11.10;5.80;;;;;;;-1.12;100.00;101231.14;1876656;75;21155;-59
2021/03/10 06:02:14;;;;;;;11.25;5.97;;;;;;;-0.86;100.00;101224.13;1797273;79;22656;-59
2021/03/10 06:04:43;;;;;;;13.35;6.80;;;;;;;-0.55;100.00;101227.06;1871376;75;21192;-60
2021/03/10 06:07:22;;;;;;;7.83;5.65;;;;;;;-0.27;98.31;101222.90;1875036;75;21532;-65
2021/03/10 06:10:01;;;;;;;10.78;5.97;;;;;;;0.01;91.34;101222.12;1874237;75;21009;-60
2021/03/10 06:12:43;;;;;;;8.75;5.33;;;;;;;0.22;83.11;101222.56;1873147;75;21104;-59
2021/03/10 06:15:12;;;;;;;;;;;;;;;0.56;86.44;101230.30;1862905;75;21770;-59
2021/03/10 06:17:49;;;;;;;8.00;5.20;;;;;;;1.26;79.48;101231.94;1856305;76;20118;-60
2021/03/10 06:20:27;;;;;;;8.13;5.42;;;;;;;1.88;77.46;101232.11;1860630;76;21525;-61
2021/03/10 06:22:55;;;;;;;8.93;5.22;;;;;;;2.34;70.10;101234.94;1860040;76;22246;-60
2021/03/10 06:25:25;;;;;;;9.18;5.72;;;;;;;2.98;65.20;101237.80;1853902;76;21156;-59
2021/03/10 06:27:57;;;;;;;8.70;5.65;;;;;;;3.77;58.98;101233.73;1861381;76;21241;-59
2021/03/10 06:30:38;;;;;;;9.07;5.10;;;;;;;4.44;55.06;101227.30;1868633;76;21097;-62
2021/03/10 06:33:06;;;;;;;7.67;4.40;;;;;;;5.24;51.32;101226.13;1856839;76;21000;-60
2021/03/10 06:35:35;;;;;;;7.30;5.20;;;;;;;6.05;48.90;101222.01;1799585;79;20970;-59
2021/03/10 06:38:08;;;;;;;7.43;5.00;;;;;;;7.23;44.14;101228.58;1770283;79;21243;-59
2021/03/10 06:40:53;;;;;;;8.03;5.33;;;;;;;7.23;44.14;101228.58;1810387;78;21778;-59
2021/03/10 06:43:23;;;;;;;7.67;5.20;;;;;;;7.69;42.17;101225.26;1829015;76;21636;-58
2021/03/10 06:45:51;;;;;;;8.47;5.03;;;;;;;8.23;40.43;101224.99;1833881;77;21063;-59
2021/03/10 06:48:21;;;;;;;8.37;4.30;;;;;;;8.57;37.53;101223.14;1791629;79;21541;-63
2021/03/10 06:50:50;;;;;;;7.30;4.33;;;;;;;8.67;36.40;101215.27;1799794;78;21545;-58
2021/03/10 06:53:19;;;;;;;5.60;3.63;;;;;;;8.96;35.52;101217.67;1776378;78;21201;-59
2021/03/10 06:55:48;;;;;;;6.93;3.80;;;;;;;9.33;36.02;101221.41;1796216;78;21170;-59
2021/03/10 06:58:23;;;;;;;6.33;4.13;;;;;;;9.86;35.51;101215.73;1796160;78;21077;-62
2021/03/10 07:01:01;;;;;;;8.63;6.53;;;;;;;10.29;33.40;101217.90;1863847;76;21642;-58
2021/03/10 07:03:29;;;;;;;6.47;4.30;;;;;;;10.42;32.67;101217.80;1864300;76;21037;-59
2021/03/10 07:05:58;;;;;;;6.07;3.87;;;;;;;10.60;32.46;101212.44;1861666;76;21045;-59
2021/03/10 07:08:27;;;;;;;6.27;4.00;;;;;;;10.66;30.98;101218.33;1871029;76;21471;-61
2021/03/10 07:10:55;;;;;;;15.70;7.90;;;;;;;10.76;29.97;101223.42;1865551;75;21225;-59
2021/03/10 07:13:24;;;;;;;10.23;4.97;;;;;;;10.78;29.28;101226.66;1794551;79;21133;-59
2021/03/10 07:15:52;;;;;;;6.50;4.53;;;;;;;10.70;28.91;101224.05;1804186;78;21165;-59
2021/03/10 07:18:21;;;;;;;4.50;3.37;;;;;;;10.73;27.98;101222.43;1793896;77;21201;-60
2021/03/10 07:20:49;;;;;;;4.97;3.17;;;;;;;10.67;27.44;101218.66;1790612;77;21431;-61
2021/03/10 07:23:18;;;;;;;5.57;3.10;;;;;;;10.74;28.15;101220.63;1804749;78;21104;-60
2021/03/10 07:25:45;;;;;;;5.93;3.50;;;;;;;10.58;28.40;101218.31;1806216;79;21202;-60
2021/03/10 07:28:20;;;;;;;4.40;2.90;;;;;;;10.56;27.98;101216.34;1795943;77;21095;-67
2021/03/10 07:30:49;;;;;;;3.93;2.43;;;;;;;10.62;28.11;101216.21;1799079;79;21199;-60
2021/03/10 07:33:19;;;;;;;3.60;2.20;;;;;;;10.79;28.05;101213.94;1827033;77;21022;-60
2021/03/10 07:36:19;;;;;;;5.47;3.27;;;;;;;10.68;26.25;101220.31;1803461;78;21601;-60
2021/03/10 07:38:47;;;;;;;8.97;4.90;;;;;;;10.33;25.63;101225.23;1863436;76;21187;-58
2021/03/10 07:41:15;;;;;;;3.83;2.27;;;;;;;9.71;25.12;101225.40;1860719;75;20978;-61
2021/03/10 07:43:47;;;;;;;4.47;2.33;;;;;;;9.18;25.67;101220.30;1834980;76;23421;-63
2021/03/10 07:46:30;;;;;;;8.50;5.90;;;;;;;9.04;26.06;101219.04;1805232;79;21063;-60
2021/03/10 07:49:00;;;;;;;11.17;7.57;;;;;;;9.10;26.21;101218.94;1800670;77;21532;-61
2021/03/10 07:51:36;;;;;;;5.15;2.45;;;;;;;9.05;27.05;101216.77;1794962;79;21188;-61
2021/03/10 07:54:19;;;;;;;3.57;2.10;;;;;;;9.11;26.84;101217.48;1792182;79;21200;-61
2021/03/10 07:56:46;;;;;;;5.37;2.50;;;;;;;9.11;26.46;101227.07;1783478;79;21228;-61
2021/03/10 07:59:16;;;;;;;6.43;2.60;;;;;;;9.07;26.61;101220.53;1800312;77;21072;-64
2021/03/10 08:01:47;;;;;;;5.13;3.63;;;;;;;9.16;26.44;101223.52;1797252;79;22203;-59
2021/03/10 08:04:17;;;;;;;5.30;2.63;;;;;;;8.98;26.09;101221.77;1793293;79;21066;-59
2021/03/10 08:06:52;;;;;;;6.60;2.47;;;;;;;8.82;26.58;101227.28;1800206;79;21161;-60
2021/03/10 08:09:23;;;;;;;4.57;2.30;;;;;;;8.84;26.86;101225.36;1783033;79;22936;-60
2021/03/10 08:12:10;;;;;;;4.42;2.98;;;;;;;9.07;26.00;101224.44;1799278;77;21547;-60
2021/03/10 08:14:42;;;;;;;5.27;3.13;;;;;;;9.23;27.23;101221.96;1785587;79;21576;-66
2021/03/10 08:17:26;;;;;;;4.78;2.95;;;;;;;9.61;27.31;101218.17;1793390;78;21129;-59
2021/03/10 08:20:01;;;;;;;4.63;2.90;;;;;;;9.98;27.29;101217.90;1794960;78;21180;-62
2021/03/10 08:22:31;;;;;;;4.77;2.73;;;;;;;10.27;26.57;101217.25;1787536;79;21350;-67
2021/03/10 08:25:01;;;;;;;4.50;2.80;;;;;;;10.34;26.00;101210.41;1787157;79;21514;-62
2021/03/10 08:27:36;;;;;;;6.25;2.98;;;;;;;10.39;25.76;101204.26;1794722;79;21183;-59
2021/03/10 08:30:28;;;;;;;5.43;3.17;;;;;;;10.29;25.44;101212.69;1798318;78;21666;-60
2021/03/10 08:33:12;;;;;;;5.37;2.57;;;;;;;10.01;25.21;101219.39;1719822;82;21159;-60
2021/03/10 08:35:48;;;;;;;3.97;2.70;;;;;;;9.66;25.73;101215.94;1736001;81;21273;-62
2021/03/10 08:38:16;;;;;;;5.20;3.10;;;;;;;9.75;25.73;101213.70;1724217;82;21451;-59
2021/03/10 08:40:44;;;;;;;4.50;2.77;;;;;;;9.92;25.71;101222.41;1713846;82;21114;-61
2021/03/10 08:43:20;;;;;;;4.07;2.53;;;;;;;9.98;25.41;101216.59;1729736;82;21322;-59
2021/03/10 08:45:48;;;;;;;5.70;3.73;;;;;;;9.92;25.17;101222.41;1784973;79;21060;-61
2021/03/10 08:48:17;;;;;;;5.83;3.30;;;;;;;9.73;25.39;101218.23;1793002;79;22551;-60
2021/03/10 08:50:46;;;;;;;4.87;2.60;;;;;;;9.47;26.19;101213.05;1792943;79;21133;-60
2021/03/10 08:53:15;;;;;;;4.93;3.10;;;;;;;9.39;26.45;101221.27;1787563;79;21052;-60
2021/03/10 08:55:45;;;;;;;5.60;3.10;;;;;;;9.35;25.42;101220.75;1797756;79;21625;-60
2021/03/10 08:58:18;;;;;;;8.23;3.20;;;;;;;8.39;26.46;101216.59;1791339;79;21237;-60
2021/03/10 09:00:48;;;;;;;5.33;3.03;;;;;;;8.39;26.46;101216.59;1765696;79;21368;-61
2021/03/10 09:03:19;;;;;;;4.77;3.10;;;;;;;8.54;27.11;101220.83;1790728;79;21827;-59
2021/03/10 09:06:04;;;;;;;4.10;2.80;;;;;;;8.90;26.91;101219.09;1859301;76;22299;-60
2021/03/10 09:08:33;;;;;;;5.20;3.43;;;;;;;8.98;26.65;101219.16;1824652;78;21057;-60
2021/03/10 09:11:08;;;;;;;4.13;2.83;;;;;;;8.96;26.51;101209.87;1831854;78;22225;-65
2021/03/10 09:13:48;;;;;;;8.53;4.17;;;;;;;8.75;27.30;101213.59;1827322;78;22797;-60
2021/03/10 09:16:18;;;;;;;6.17;3.57;;;;;;;8.67;26.70;101213.48;1803678;78;20982;-60
2021/03/10 09:19:01;;;;;;;5.20;3.10;;;;;;;8.25;26.85;101222.23;1796604;78;21218;-66
2021/03/10 09:21:42;;;;;;;6.85;3.62;;;;;;;8.05;27.56;101228.00;1794321;79;22159;-61
2021/03/10 09:24:11;;;;;;;6.20;3.30;;;;;;;8.14;27.79;101213.33;1793403;79;21011;-59
2021/03/10 09:26:41;;;;;;;5.37;2.87;;;;;;;8.38;28.39;101227.97;1741902;80;21206;-65
2021/03/10 09:29:10;;;;;;;5.50;2.90;;;;;;;8.52;27.52;101218.84;1735846;81;22096;-60
2021/03/10 09:31:40;;;;;;;5.77;3.27;;;;;;;8.51;27.37;101224.52;1739167;81;21609;-62
2021/03/10 09:34:08;;;;;;;5.93;2.57;;;;;;;8.50;28.21;101220.78;1717625;82;21436;-60
2021/03/10 09:36:41;;;;;;;4.83;3.20;;;;;;;8.53;27.83;101226.52;1758080;81;21331;-67
2021/03/10 09:39:10;;;;;;;4.60;3.00;;;;;;;8.51;27.86;101220.63;1749025;81;21940;-59
2021/03/10 09:41:46;;;;;;;7.13;3.70;;;;;;;8.61;28.52;101213.27;1750627;81;21326;-60
2021/03/10 09:44:17;;;;;;;4.50;2.87;;;;;;;8.73;28.39;101225.90;1767221;80;21383;-60
2021/03/10 09:46:47;;;;;;;5.30;2.97;;;;;;;8.82;27.23;101214.28;1741257;80;21705;-61
2021/03/10 09:49:17;;;;;;;5.60;3.20;;;;;;;8.81;27.66;101212.16;1741001;81;21491;-61
2021/03/10 09:51:48;;;;;;;5.00;3.07;;;;;;;8.77;26.95;101216.03;1736405;81;21605;-60
2021/03/10 09:54:18;;;;;;;6.80;3.77;;;;;;;8.59;27.83;101220.38;1751665;80;21306;-61
2021/03/10 09:56:49;;;;;;;5.10;3.15;;;;;;;8.19;26.83;101211.95;1753535;80;22517;-67
2021/03/10 09:59:17;;;;;;;5.40;3.00;;;;;;;8.01;27.83;101217.08;1751469;80;21683;-64
2021/03/10 10:01:48;;;;;;;4.50;3.20;;;;;;;7.94;27.65;101212.12;1743595;80;21450;-61
2021/03/10 10:04:29;;;;;;;4.97;3.13;;;;;;;7.98;28.34;101209.57;1806172;77;22739;-61
2021/03/10 10:06:59;;;;;;;5.97;3.37;;;;;;;8.02;28.80;101208.33;1800192;79;22270;-61
2021/03/10 10:09:31;;;;;;;5.63;4.10;;;;;;;7.94;28.01;101213.41;1792884;79;22242;-61
2021/03/10 10:12:03;;;;;;;7.93;3.57;;;;;;;7.77;28.46;101213.69;1782618;79;21319;-61
2021/03/10 10:14:33;;;;;;;5.83;3.52;;;;;;;7.73;28.70;101210.23;1790518;79;21335;-60
2021/03/10 10:17:01;;;;;;;6.27;3.23;;;;;;;7.71;28.54;101218.13;1795284;77;21069;-63
2021/03/10 10:19:30;;;;;;;5.60;3.87;;;;;;;7.62;28.59;101211.69;1782605;79;21305;-59
2021/03/10 10:21:59;;;;;;;5.50;3.50;;;;;;;7.55;29.00;101210.13;1788343;79;21331;-61
2021/03/10 10:24:28;;;;;;;5.03;3.10;;;;;;;7.61;29.15;101210.03;1793436;79;21200;-60
2021/03/10 10:26:56;;;;;;;10.57;6.17;;;;;;;7.67;28.75;101208.18;1796096;79;21010;-68
2021/03/10 10:29:25;;;;;;;6.47;3.70;;;;;;;7.70;29.12;101201.42;1790383;79;21798;-60
2021/03/10 10:31:53;;;;;;;7.37;4.70;;;;;;;7.74;28.64;101200.17;1785409;79;21391;-61
2021/03/10 10:34:23;;;;;;;6.72;4.12;;;;;;;7.78;28.68;101195.04;1798856;79;22252;-61
2021/03/10 10:36:52;;;;;;;6.37;3.83;;;;;;;7.79;29.04;101194.88;1792649;77;21129;-62
2021/03/10 10:39:30;;;;;;;5.70;3.40;;;;;;;7.99;29.06;101196.95;1821315;78;22723;-59
2021/03/10 10:41:58;;;;;;;6.57;3.97;;;;;;;8.01;29.22;101188.52;1795815;78;21006;-59
2021/03/10 10:44:27;;;;;;;6.23;3.83;;;;;;;7.97;28.89;101191.06;1772494;79;21272;-58
2021/03/10 10:46:55;;;;;;;8.23;4.10;;;;;;;7.94;28.81;101188.75;1700490;82;21460;-59
2021/03/10 10:49:25;;;;;;;5.47;3.43;;;;;;;8.00;28.89;101193.88;1762105;80;22660;-60
2021/03/10 10:51:54;;;;;;;6.47;3.63;;;;;;;7.91;29.29;101190.33;1730059;81;21430;-62
2021/03/10 10:54:24;;;;;;;8.80;6.03;;;;;;;7.72;29.08;101187.80;1757725;80;21091;-60
2021/03/10 10:56:54;;;;;;;7.33;4.75;;;;;;;7.51;28.54;101190.13;1722163;81;21397;-60
2021/03/10 10:59:33;;;;;;;6.47;3.90;;;;;;;7.36;28.88;101190.22;1759204;80;21050;-60
2021/03/10 11:02:03;;;;;;;5.93;4.10;;;;;;;7.30;28.92;101185.58;1733303;81;21347;-62
2021/03/10 11:04:31;;;;;;;6.07;3.67;;;;;;;7.30;28.28;101179.09;1712401;81;21258;-67
2021/03/10 11:07:14;;;;;;;5.40;3.52;;;;;;;7.22;28.95;101176.37;1645961;85;22064;-59
2021/03/10 11:09:42;;;;;;;7.15;4.30;;;;;;;7.23;28.95;101171.05;1629623;85;22662;-60
2021/03/10 11:12:13;;;;;;;7.47;4.22;;;;;;;7.28;29.26;101171.95;1627271;86;22529;-61
2021/03/10 11:14:43;;;;;;;5.87;3.40;;;;;;;7.33;28.70;101169.75;1629928;85;21383;-61
2021/03/10 11:17:13;;;;;;;5.63;3.97;;;;;;;7.24;28.90;101172.70;1606402;87;21412;-60
2021/03/10 11:19:43;;;;;;;7.43;4.40;;;;;;;7.19;28.69;101170.17;1627794;86;21352;-60
2021/03/10 11:22:12;;;;;;;5.27;3.23;;;;;;;7.13;28.88;101174.15;1599301;87;21402;-60
2021/03/10 11:24:40;;;;;;;5.53;3.20;;;;;;;7.04;28.71;101171.88;1686567;81;22016;-61
2021/03/10 11:27:09;;;;;;;6.17;3.47;;;;;;;6.87;28.61;101173.88;1729911;80;21026;-63
2021/03/10 11:29:38;;;;;;;6.15;3.60;;;;;;;6.63;29.10;101172.98;1730898;80;21675;-60
2021/03/10 11:32:08;;;;;;;5.90;3.90;;;;;;;6.44;29.25;101174.22;1731334;80;21667;-60
2021/03/10 11:34:37;;;;;;;6.25;4.05;;;;;;;6.38;30.18;101168.30;1697824;80;22128;-60
2021/03/10 11:37:08;;;;;;;5.83;3.50;;;;;;;6.42;30.38;101158.83;1735680;80;21576;-60
2021/03/10 11:39:37;;;;;;;6.72;2.98;;;;;;;6.51;30.46;101163.20;1730331;80;21367;-69
2021/03/10 11:42:06;;;;;;;7.22;3.90;;;;;;;6.54;30.55;101170.70;1729591;80;21069;-59
2021/03/10 11:44:37;;;;;;;6.03;3.02;;;;;;;6.51;30.03;101165.78;1733174;80;20979;-58
2021/03/10 11:47:05;;;;;;;6.28;3.30;;;;;;;6.46;29.57;101169.27;1695717;82;21867;-59
2021/03/10 11:49:35;;;;;;;6.22;2.92;;;;;;;6.34;29.71;101161.27;1695542;82;21066;-61
2021/03/10 11:52:06;;;;;;;5.20;2.77;;;;;;;6.31;29.93;101162.34;1713256;81;21568;-60
2021/03/10 11:54:35;;;;;;;4.30;2.72;;;;;;;6.32;29.87;101157.98;1723382;82;21458;-60
2021/03/10 11:57:05;;;;;;;4.35;2.83;;;;;;;6.33;29.75;101157.05;1717106;82;21422;-59
2021/03/10 11:59:35;;;;;;;4.55;2.70;;;;;;;6.33;30.00;101159.17;1723362;82;21149;-61
2021/03/10 12:02:07;;;;;;;5.23;3.10;;;;;;;6.30;29.69;101163.31;1718787;82;21603;-60
2021/03/10 12:04:38;;;;;;;5.28;2.87;;;;;;;6.24;29.64;101157.36;1696453;83;21019;-59
2021/03/10 12:07:07;;;;;;;6.42;4.00;;;;;;;6.18;29.44;101154.50;1710635;82;21104;-60
2021/03/10 12:09:36;;;;;;;4.10;2.35;;;;;;;6.09;29.66;101154.31;1691831;83;21599;-60
2021/03/10 12:12:05;;;;;;;7.15;4.62;;;;;;;6.04;29.48;101151.80;1705185;81;21409;-60
2021/03/10 12:14:35;;;;;;;;;;;;;;;5.95;30.02;101152.11;1704465;82;21077;-60
2021/03/10 12:17:05;;;;;;;6.65;4.03;;;;;;;5.82;30.29;101152.28;1697634;82;20717;-60
2021/03/10 12:19:33;;;;;;;4.53;2.90;;;;;;;5.73;30.49;101147.09;1700418;82;21065;-67
2021/03/10 12:22:01;;;;;;;5.00;3.25;;;;;;;5.70;30.27;101147.34;1696393;82;21674;-60
2021/03/10 12:24:31;;;;;;;8.53;5.72;;;;;;;5.68;30.50;101141.46;1700633;82;21204;-60
2021/03/10 12:27:00;;;;;;;4.70;3.17;;;;;;;5.69;30.78;101150.41;1698274;82;21204;-60
2021/03/10 12:29:28;;;;;;;5.28;2.50;;;;;;;5.67;30.83;101150.99;1731954;80;21219;-60
2021/03/10 12:31:56;;;;;;;4.12;2.45;;;;;;;5.65;30.09;101148.21;1734125;80;21587;-62
2021/03/10 12:34:24;;;;;;;4.92;3.08;;;;;;;5.48;30.68;101145.73;1731222;80;21236;-59
2021/03/10 12:36:53;;;;;;;5.62;3.12;;;;;;;5.32;30.45;101147.48;1732369;80;21379;-60
2021/03/10 12:39:21;;;;;;;4.25;2.47;;;;;;;5.15;30.26;101144.97;1729471;80;21058;-59
2021/03/10 12:41:49;;;;;;;4.42;2.72;;;;;;;5.06;30.89;101141.39;1738481;80;21543;-60
2021/03/10 12:44:17;;;;;;;5.45;2.90;;;;;;;4.94;31.08;101149.33;1735271;80;21228;-59
2021/03/10 12:46:46;;;;;;;5.62;2.87;;;;;;;4.84;31.41;101148.77;1735918;80;21160;-64
2021/03/10 12:49:15;;;;;;;6.62;3.35;;;;;;;4.82;31.78;101147.27;1731527;80;21192;-60
2021/03/10 12:51:45;;;;;;;6.22;3.15;;;;;;;4.78;31.69;101144.11;1730045;80;21027;-68
2021/03/10 12:54:13;;;;;;;6.62;3.40;;;;;;;4.78;31.95;101142.81;1729276;80;21137;-59
2021/03/10 12:56:43;;;;;;;4.67;2.70;;;;;;;4.71;31.38;101142.14;1693744;82;21106;-61
2021/03/10 12:59:11;;;;;;;5.30;3.20;;;;;;;4.58;31.56;101142.28;1721105;82;21125;-59
2021/03/10 13:01:41;;;;;;;4.25;2.58;;;;;;;4.44;31.34;101143.40;1667070;84;22383;-61
2021/03/10 13:04:09;;;;;;;6.50;3.75;;;;;;;4.32;31.87;101141.32;1667494;83;21114;-60
2021/03/10 13:06:37;;;;;;;7.67;4.00;;;;;;;4.22;31.52;101140.86;1717513;81;21168;-58
2021/03/10 13:09:05;;;;;;;5.35;3.20;;;;;;;4.08;31.52;101140.16;1734972;81;21130;-60
2021/03/10 13:11:34;;;;;;;4.65;2.85;;;;;;;3.96;32.41;101139.83;1723473;81;21079;-59
2021/03/10 13:14:03;;;;;;;4.53;2.70;;;;;;;3.96;32.06;101142.41;1688984;83;21392;-63
2021/03/10 13:16:31;;;;;;;5.58;2.98;;;;;;;3.91;32.15;101140.66;1705761;81;21005;-59
2021/03/10 13:19:00;;;;;;;5.45;2.62;;;;;;;3.82;32.14;101141.35;1709561;81;21101;-59
2021/03/10 13:21:31;;;;;;;6.75;3.60;;;;;;;3.71;32.30;101133.61;1710963;81;21212;-61
2021/03/10 13:23:59;;;;;;;5.45;3.12;;;;;;;3.61;32.60;101136.91;1709709;81;22109;-60
2021/03/10 13:26:27;;;;;;;5.33;2.85;;;;;;;3.52;32.88;101132.42;1759983;79;21755;-59
2021/03/10 13:28:56;;;;;;;5.95;2.95;;;;;;;3.44;33.11;101130.90;1694178;82;21103;-60
2021/03/10 13:31:24;;;;;;;5.30;3.22;;;;;;;3.39;33.37;101126.56;1723965;82;21183;-66
2021/03/10 13:33:53;;;;;;;7.53;2.95;;;;;;;3.33;33.16;101127.02;1752848;79;21494;-60
2021/03/10 13:36:21;;;;;;;6.03;3.30;;;;;;;3.23;33.26;101120.92;1760278;79;21142;-58
2021/03/10 13:38:49;;;;;;;5.28;3.27;;;;;;;3.15;33.26;101113.30;1718203;81;22013;-58
2021/03/10 13:41:18;;;;;;;13.65;5.62;;;;;;;3.04;33.46;101122.75;1713904;81;21172;-58
2021/03/10 13:43:46;;;;;;;11.57;5.30;;;;;;;2.95;33.25;101116.50;1718580;80;21030;-58
2021/03/10 13:46:14;;;;;;;6.83;3.15;;;;;;;2.84;33.23;101122.90;1748036;79;21091;-59
2021/03/10 13:48:42;;;;;;;4.55;2.62;;;;;;;2.73;32.41;101118.55;1763185;79;21175;-58
2021/03/10 13:51:10;;;;;;;5.92;3.62;;;;;;;2.55;32.97;101113.44;1752246;79;21383;-65
2021/03/10 13:53:38;;;;;;;8.23;4.30;;;;;;;2.49;33.14;101115.16;1754957;79;21125;-58
2021/03/10 13:56:06;;;;;;;6.53;3.62;;;;;;;2.43;33.59;101106.14;1748773;79;22381;-58
2021/03/10 13:58:35;;;;;;;5.20;3.12;;;;;;;2.36;33.59;101122.47;1752071;79;21575;-63
2021/03/10 14:01:04;;;;;;;5.42;3.00;;;;;;;2.25;33.92;101110.00;1750215;79;21188;-59
2021/03/10 14:03:33;;;;;;;6.55;2.77;;;;;;;2.21;34.06;101110.69;1750567;79;22277;-62
2021/03/10 14:06:02;;;;;;;4.92;2.50;;;;;;;2.17;33.74;101108.80;1756565;79;21093;-60
2021/03/10 14:08:31;;;;;;;9.45;4.20;;;;;;;2.07;34.03;101106.50;1737959;79;21571;-59
2021/03/10 14:11:02;;;;;;;7.75;3.60;;;;;;;1.86;34.89;101112.68;1750359;79;21062;-58
2021/03/10 14:13:30;;;;;;;5.70;2.83;;;;;;;1.73;35.88;101113.61;1747216;79;21147;-65
2021/03/10 14:16:00;;;;;;;4.97;3.08;;;;;;;1.64;35.67;101115.89;1677877;83;23001;-58
2021/03/10 14:18:30;;;;;;;8.38;4.20;;;;;;;1.59;35.50;101108.11;1746840;79;21223;-58
2021/03/10 14:20:58;;;;;;;8.70;3.75;;;;;;;1.48;36.21;101105.02;1749699;79;21212;-59
2021/03/10 14:23:26;;;;;;;8.03;3.47;;;;;;;1.34;35.83;101099.50;1750844;79;21173;-59
2021/03/10 14:25:55;;;;;;;6.40;3.05;;;;;;;1.17;35.88;101103.18;1749844;79;21136;-60
2021/03/10 14:28:23;;;;;;;6.53;3.50;;;;;;;1.02;36.50;101107.22;1753833;79;21221;-59
2021/03/10 14:30:52;;;;;;;8.28;3.70;;;;;;;0.91;36.47;101107.92;1754656;79;21138;-59
2021/03/10 14:33:23;;;;;;;9.08;3.10;;;;;;;0.78;36.08;101100.66;1728392;81;21113;-59
2021/03/10 14:35:54;;;;;;;7.05;3.12;;;;;;;0.59;35.51;101100.55;1753310;79;21738;-61
2021/03/10 14:38:22;;;;;;;7.12;3.10;;;;;;;0.30;35.42;101093.88;1746497;79;21198;-60
2021/03/10 14:40:51;;;;;;;8.95;3.25;;;;;;;0.00;35.61;101100.02;1746517;79;21197;-59
2021/03/10 14:43:20;;;;;;;11.03;4.58;;;;;;;-0.22;35.98;101101.77;1748519;79;21620;-61
2021/03/10 14:45:50;;;;;;;12.23;3.12;;;;;;;-0.41;36.79;101100.77;1757726;79;21242;-62
2021/03/10 14:48:19;;;;;;;5.67;2.87;;;;;;;-0.58;37.35;101096.62;1707297;82;22452;-59
2021/03/10 14:50:48;;;;;;;6.40;3.15;;;;;;;-0.76;37.63;101102.39;1705616;82;21153;-58
2021/03/10 14:53:16;;;;;;;9.18;3.50;;;;;;;-0.92;38.53;101101.61;1702999;82;21354;-58
2021/03/10 14:55:46;;;;;;;6.55;3.55;;;;;;;-1.11;39.58;101103.58;1711303;83;21660;-60
2021/03/10 14:58:17;;;;;;;9.00;3.77;;;;;;;-1.26;40.38;101107.36;1748928;79;21289;-59
2021/03/10 15:00:47;;;;;;;9.33;3.95;;;;;;;-1.38;41.08;101109.33;1752935;79;21196;-60
2021/03/10 15:03:16;;;;;;;8.58;3.42;;;;;;;-1.51;41.85;101110.94;1750877;79;22585;-59
2021/03/10 15:05:44;;;;;;;7.47;3.87;;;;;;;-1.66;42.58;101110.50;1748246;79;21204;-61
2021/03/10 15:08:15;;;;;;;10.75;3.55;;;;;;;-1.85;43.10;101115.32;1760005;79;21233;-58
2021/03/10 15:10:43;;;;;;;7.55;3.62;;;;;;;-2.02;43.68;101121.30;1765726;79;21492;-60
2021/03/10 15:13:11;;;;;;;9.45;4.20;;;;;;;-2.20;44.42;101117.16;1774885;79;21117;-58
2021/03/10 15:15:40;;;;;;;9.58;4.62;;;;;;;-2.35;45.04;101122.63;1775257;79;21208;-62
2021/03/10 15:18:08;;;;;;;7.53;3.47;;;;;;;-2.48;45.81;101126.70;1765476;79;21262;-59
2021/03/10 15:20:37;;;;;;;7.45;4.20;;;;;;;-2.60;46.48;101125.59;1769159;79;21523;-60
2021/03/10 15:23:06;;;;;;;7.62;4.05;;;;;;;-2.72;47.51;101127.49;1770667;79;21069;-60
2021/03/10 15:25:34;;;;;;;7.67;3.12;;;;;;;-2.84;48.02;101127.65;1732859;80;21168;-65
2021/03/10 15:28:03;;;;;;;11.22;3.87;;;;;;;-2.93;49.12;101130.64;1708443;82;21619;-59
2021/03/10 15:30:31;;;;;;;9.30;3.72;;;;;;;-3.03;50.00;101133.25;1773540;79;21375;-57
2021/03/10 15:33:00;;;;;;;7.92;3.95;;;;;;;-3.13;50.63;101131.61;1777272;79;20998;-57
2021/03/10 15:35:30;;;;;;;9.40;5.75;;;;;;;-3.22;51.05;101134.16;1771531;79;21131;-58
2021/03/10 15:37:59;;;;;;;9.83;5.15;;;;;;;-3.29;52.01;101131.52;1776435;79;21134;-58
2021/03/10 15:40:27;;;;;;;10.25;5.45;;;;;;;-3.33;52.45;101138.08;1777212;79;21239;-58
2021/03/10 15:42:57;;;;;;;10.78;5.15;;;;;;;-3.39;53.27;101131.56;1771934;79;21188;-59
2021/03/10 15:45:26;;;;;;;11.20;4.65;;;;;;;-3.44;53.91;101141.16;1769909;79;21045;-59
2021/03/10 15:47:54;;;;;;;8.33;3.65;;;;;;;-3.50;54.49;101143.53;1771052;79;21192;-58